• Join FlightAware (Why Join?)
  • Login
  • US Flag 
 
01:07PM EST


 

Airport Tracker/Info


-or-


 

Live Flight TrackerFlight Track Log ✈ N465TP ✈ 24-Aug-2013 ✈ KEKS - KCOD

Flight Track Log - Related Links

Times and Time Zones

All times are in EDT time to prevent confusion due to time zone crossing. See the N465TP flight status page for this flight to view local times or setup timezone preferences in your user account.

Time Position Orientation Groundspeed Altitude Reporting Facility
EDT Latitude Longitude Course Direction KTS MPH feet Rate Location/Type
09:13PM 45.2081 -111.4619 92° East 154 177 13,700  Level Salt Lake Center
09:14PM 45.1931 -111.3908 107° East 166 191 15,300 1,320 Climbing Salt Lake Center
09:15PM 45.1875 -111.3233 97° East 174 200 16,500 780 Climbing Salt Lake Center
09:16PM 45.1786 -111.2525 100° East 181 208 16,900 180 Climbing Salt Lake Center
09:17PM 45.1703 -111.2696 108° East  Level Estimated
09:17PM 45.1656 -111.1661 102° East 192 221 16,900  Level Salt Lake Center
09:18PM 45.1542 -111.0969 103° East 192 221 16,900  Level Salt Lake Center
09:19PM 45.1289 -111.0197 115° Southeast 190 219 16,900  Level Salt Lake Center
09:20PM 45.1064 -110.9431 113° Southeast 203 234 16,900  Level Salt Lake Center
09:21PM 45.0814 -110.8603 113° Southeast 226 260 16,900  Level Salt Lake Center
09:22PM 45.0514 -110.7594 113° Southeast 244 281 16,900  Level Salt Lake Center
09:23PM 45.0264 -110.6725 112° Southeast 248 285 16,900  Level Salt Lake Center
09:24PM 45.0006 -110.5844 113° Southeast 251 289 16,900  Level Salt Lake Center
09:25PM 44.9706 -110.4814 112° Southeast 253 291 17,000  Climbing Salt Lake Center
09:26PM 44.9436 -110.3942 114° Southeast 252 290 17,000  Level Salt Lake Center
09:27PM 44.9136 -110.2939 113° Southeast 251 289 17,000  Level Salt Lake Center
09:28PM 44.8869 -110.2064 113° Southeast 252 290 17,000  Level Salt Lake Center
09:29PM 44.8608 -110.1172 112° Southeast 256 295 17,000  Level Salt Lake Center
09:30PM 44.8292 -110.0144 113° Southeast 256 295 17,000  Level Salt Lake Center
09:31PM 44.8025 -109.9281 113° Southeast 253 291 17,000  Level Salt Lake Center
09:32PM 44.7719 -109.8300 114° Southeast 252 290 17,000  Level Salt Lake Center
09:33PM 44.7436 -109.7381 113° Southeast 255 293 17,000  Level Salt Lake Center
09:34PM 44.7158 -109.6494 114° Southeast 251 289 17,000 -300 Level Salt Lake Center
09:35PM 44.6881 -109.5603 114° Southeast 250 288 16,400 -840 Descending Salt Lake Center
09:36PM 44.6608 -109.4753 114° Southeast 243 280 15,300 -1,140 Descending Salt Lake Center